sensor_id;sensor_type;location;lat;lon;timestamp;P1;durP1;ratioP1;P2;durP2;ratioP2
52041;SDS011;38052;45.944;13.624;2022-12-15T00:00:15;18.52;;;10.57;;
52041;SDS011;38052;45.944;13.624;2022-12-15T00:03:03;16.27;;;10.65;;
52041;SDS011;38052;45.944;13.624;2022-12-15T00:05:48;18.10;;;11.85;;
52041;SDS011;38052;45.944;13.624;2022-12-15T00:08:33;20.90;;;11.52;;
52041;SDS011;38052;45.944;13.624;2022-12-15T00:11:17;17.88;;;11.27;;
52041;SDS011;38052;45.944;13.624;2022-12-15T00:14:02;22.58;;;12.18;;
52041;SDS011;38052;45.944;13.624;2022-12-15T00:16:46;17.30;;;11.10;;
52041;SDS011;38052;45.944;13.624;2022-12-15T00:19:30;17.45;;;11.75;;
52041;SDS011;38052;45.944;13.624;2022-12-15T00:22:15;18.85;;;12.32;;
52041;SDS011;38052;45.944;13.624;2022-12-15T00:25:00;19.85;;;11.70;;
52041;SDS011;38052;45.944;13.624;2022-12-15T00:27:44;17.50;;;12.45;;
52041;SDS011;38052;45.944;13.624;2022-12-15T00:30:29;17.38;;;10.95;;
52041;SDS011;38052;45.944;13.624;2022-12-15T00:33:14;17.35;;;11.20;;
52041;SDS011;38052;45.944;13.624;2022-12-15T00:35:58;16.55;;;10.80;;
52041;SDS011;38052;45.944;13.624;2022-12-15T00:38:43;19.58;;;12.07;;
52041;SDS011;38052;45.944;13.624;2022-12-15T00:41:10;17.95;;;10.90;;
52041;SDS011;38052;45.944;13.624;2022-12-15T00:43:37;16.95;;;10.25;;
52041;SDS011;38052;45.944;13.624;2022-12-15T00:46:04;17.13;;;10.00;;
52041;SDS011;38052;45.944;13.624;2022-12-15T00:48:49;15.25;;;10.43;;
52041;SDS011;38052;45.944;13.624;2022-12-15T00:51:16;21.52;;;10.32;;
52041;SDS011;38052;45.944;13.624;2022-12-15T00:53:43;17.77;;;10.25;;
52041;SDS011;38052;45.944;13.624;2022-12-15T00:56:28;19.15;;;9.07;;
52041;SDS011;38052;45.944;13.624;2022-12-15T00:59:12;14.88;;;9.70;;
52041;SDS011;38052;45.944;13.624;2022-12-15T01:01:58;17.50;;;9.95;;
52041;SDS011;38052;45.944;13.624;2022-12-15T01:04:43;16.20;;;10.02;;
52041;SDS011;38052;45.944;13.624;2022-12-15T01:07:27;15.52;;;10.10;;
52041;SDS011;38052;45.944;13.624;2022-12-15T01:10:11;15.75;;;10.52;;
52041;SDS011;38052;45.944;13.624;2022-12-15T01:12:56;15.70;;;9.50;;
52041;SDS011;38052;45.944;13.624;2022-12-15T01:15:41;14.07;;;9.57;;
52041;SDS011;38052;45.944;13.624;2022-12-15T01:18:25;16.00;;;9.73;;
52041;SDS011;38052;45.944;13.624;2022-12-15T01:21:10;16.38;;;10.15;;
52041;SDS011;38052;45.944;13.624;2022-12-15T01:23:37;13.50;;;8.43;;
52041;SDS011;38052;45.944;13.624;2022-12-15T01:26:04;14.32;;;9.00;;
52041;SDS011;38052;45.944;13.624;2022-12-15T01:28:30;15.10;;;9.23;;
52041;SDS011;38052;45.944;13.624;2022-12-15T01:30:57;14.27;;;8.85;;
52041;SDS011;38052;45.944;13.624;2022-12-15T01:33:23;13.32;;;8.60;;
52041;SDS011;38052;45.944;13.624;2022-12-15T01:35:59;17.33;;;9.90;;
52041;SDS011;38052;45.944;13.624;2022-12-15T01:38:27;12.35;;;8.27;;
52041;SDS011;38052;45.944;13.624;2022-12-15T01:40:57;16.65;;;10.43;;
52041;SDS011;38052;45.944;13.624;2022-12-15T01:43:26;16.15;;;9.85;;
52041;SDS011;38052;45.944;13.624;2022-12-15T01:48:29;13.70;;;8.48;;
52041;SDS011;38052;45.944;13.624;2022-12-15T01:51:02;15.48;;;8.63;;
52041;SDS011;38052;45.944;13.624;2022-12-15T01:53:31;16.30;;;9.27;;
52041;SDS011;38052;45.944;13.624;2022-12-15T01:55:58;16.92;;;9.25;;
52041;SDS011;38052;45.944;13.624;2022-12-15T01:58:25;16.73;;;9.98;;
52041;SDS011;38052;45.944;13.624;2022-12-15T02:00:52;14.68;;;9.73;;
52041;SDS011;38052;45.944;13.624;2022-12-15T02:03:18;12.48;;;8.38;;
52041;SDS011;38052;45.944;13.624;2022-12-15T02:05:44;13.35;;;8.38;;
52041;SDS011;38052;45.944;13.624;2022-12-15T02:08:11;18.17;;;9.85;;
52041;SDS011;38052;45.944;13.624;2022-12-15T02:10:51;16.30;;;9.40;;
52041;SDS011;38052;45.944;13.624;2022-12-15T02:13:25;15.32;;;9.45;;
52041;SDS011;38052;45.944;13.624;2022-12-15T02:21:28;14.00;;;9.50;;
52041;SDS011;38052;45.944;13.624;2022-12-15T02:29:37;14.65;;;9.32;;
52041;SDS011;38052;45.944;13.624;2022-12-15T02:32:09;16.00;;;9.32;;
52041;SDS011;38052;45.944;13.624;2022-12-15T02:39:48;15.30;;;9.38;;
52041;SDS011;38052;45.944;13.624;2022-12-15T02:42:15;16.00;;;10.48;;
52041;SDS011;38052;45.944;13.624;2022-12-15T02:44:46;13.80;;;9.27;;
52041;SDS011;38052;45.944;13.624;2022-12-15T02:55:21;15.13;;;9.45;;
52041;SDS011;38052;45.944;13.624;2022-12-15T02:57:54;16.30;;;10.05;;
52041;SDS011;38052;45.944;13.624;2022-12-15T03:00:22;18.05;;;10.55;;
52041;SDS011;38052;45.944;13.624;2022-12-15T03:02:49;21.98;;;9.30;;
52041;SDS011;38052;45.944;13.624;2022-12-15T03:05:16;17.42;;;10.02;;
52041;SDS011;38052;45.944;13.624;2022-12-15T03:07:43;17.00;;;9.80;;
52041;SDS011;38052;45.944;13.624;2022-12-15T03:10:11;13.40;;;8.88;;
52041;SDS011;38052;45.944;13.624;2022-12-15T03:12:38;14.18;;;9.05;;
52041;SDS011;38052;45.944;13.624;2022-12-15T03:15:05;13.95;;;8.00;;
52041;SDS011;38052;45.944;13.624;2022-12-15T03:17:32;15.15;;;9.52;;
52041;SDS011;38052;45.944;13.624;2022-12-15T03:19:58;14.55;;;9.52;;
52041;SDS011;38052;45.944;13.624;2022-12-15T03:22:24;14.40;;;8.75;;
52041;SDS011;38052;45.944;13.624;2022-12-15T03:24:51;14.25;;;7.88;;
52041;SDS011;38052;45.944;13.624;2022-12-15T03:27:17;17.40;;;9.68;;
52041;SDS011;38052;45.944;13.624;2022-12-15T03:29:43;11.35;;;8.02;;
52041;SDS011;38052;45.944;13.624;2022-12-15T03:32:09;11.88;;;7.45;;
52041;SDS011;38052;45.944;13.624;2022-12-15T03:34:35;11.77;;;7.07;;
52041;SDS011;38052;45.944;13.624;2022-12-15T03:37:02;14.68;;;8.40;;
52041;SDS011;38052;45.944;13.624;2022-12-15T03:39:29;15.05;;;7.97;;
52041;SDS011;38052;45.944;13.624;2022-12-15T03:41:55;12.10;;;8.07;;
52041;SDS011;38052;45.944;13.624;2022-12-15T03:44:22;13.00;;;7.93;;
52041;SDS011;38052;45.944;13.624;2022-12-15T03:46:48;13.02;;;8.02;;
52041;SDS011;38052;45.944;13.624;2022-12-15T03:49:15;12.13;;;8.68;;
52041;SDS011;38052;45.944;13.624;2022-12-15T03:51:41;12.20;;;8.00;;
52041;SDS011;38052;45.944;13.624;2022-12-15T03:54:10;14.80;;;7.88;;
52041;SDS011;38052;45.944;13.624;2022-12-15T03:56:36;14.32;;;8.45;;
52041;SDS011;38052;45.944;13.624;2022-12-15T03:59:03;12.65;;;8.15;;
52041;SDS011;38052;45.944;13.624;2022-12-15T04:01:31;11.93;;;7.72;;
52041;SDS011;38052;45.944;13.624;2022-12-15T04:03:58;12.75;;;8.68;;
52041;SDS011;38052;45.944;13.624;2022-12-15T04:06:25;12.18;;;8.25;;
52041;SDS011;38052;45.944;13.624;2022-12-15T04:08:51;10.80;;;7.07;;
52041;SDS011;38052;45.944;13.624;2022-12-15T04:11:19;15.10;;;8.95;;
52041;SDS011;38052;45.944;13.624;2022-12-15T04:13:45;13.65;;;8.13;;
52041;SDS011;38052;45.944;13.624;2022-12-15T04:16:11;11.77;;;7.47;;
52041;SDS011;38052;45.944;13.624;2022-12-15T04:18:37;10.77;;;7.25;;
52041;SDS011;38052;45.944;13.624;2022-12-15T04:21:03;15.20;;;6.75;;
52041;SDS011;38052;45.944;13.624;2022-12-15T04:23:30;15.18;;;8.75;;
52041;SDS011;38052;45.944;13.624;2022-12-15T04:25:56;12.98;;;8.20;;
52041;SDS011;38052;45.944;13.624;2022-12-15T04:28:40;12.15;;;8.27;;
52041;SDS011;38052;45.944;13.624;2022-12-15T04:31:28;11.48;;;8.02;;
52041;SDS011;38052;45.944;13.624;2022-12-15T04:34:15;12.43;;;7.55;;
52041;SDS011;38052;45.944;13.624;2022-12-15T04:37:00;15.77;;;8.18;;
52041;SDS011;38052;45.944;13.624;2022-12-15T04:39:46;20.55;;;9.27;;
52041;SDS011;38052;45.944;13.624;2022-12-15T04:42:32;12.13;;;8.20;;
52041;SDS011;38052;45.944;13.624;2022-12-15T04:45:18;15.35;;;8.63;;
52041;SDS011;38052;45.944;13.624;2022-12-15T04:48:03;12.68;;;8.20;;
52041;SDS011;38052;45.944;13.624;2022-12-15T04:50:48;11.63;;;8.00;;
52041;SDS011;38052;45.944;13.624;2022-12-15T04:53:33;12.35;;;7.53;;
52041;SDS011;38052;45.944;13.624;2022-12-15T04:56:17;15.85;;;7.80;;
52041;SDS011;38052;45.944;13.624;2022-12-15T04:59:02;15.52;;;9.05;;
52041;SDS011;38052;45.944;13.624;2022-12-15T05:01:47;11.82;;;7.53;;
52041;SDS011;38052;45.944;13.624;2022-12-15T05:04:32;13.68;;;8.30;;
52041;SDS011;38052;45.944;13.624;2022-12-15T05:07:16;12.00;;;7.28;;
52041;SDS011;38052;45.944;13.624;2022-12-15T05:10:02;12.00;;;6.78;;
52041;SDS011;38052;45.944;13.624;2022-12-15T05:12:47;21.25;;;8.05;;
52041;SDS011;38052;45.944;13.624;2022-12-15T05:15:32;16.95;;;8.75;;
52041;SDS011;38052;45.944;13.624;2022-12-15T05:18:17;13.05;;;8.73;;
52041;SDS011;38052;45.944;13.624;2022-12-15T05:21:01;19.35;;;7.22;;
52041;SDS011;38052;45.944;13.624;2022-12-15T05:23:47;15.90;;;10.20;;
52041;SDS011;38052;45.944;13.624;2022-12-15T05:26:31;14.23;;;8.00;;
52041;SDS011;38052;45.944;13.624;2022-12-15T05:29:16;13.88;;;8.25;;
52041;SDS011;38052;45.944;13.624;2022-12-15T05:32:01;13.48;;;7.20;;
52041;SDS011;38052;45.944;13.624;2022-12-15T05:34:28;16.83;;;8.50;;
52041;SDS011;38052;45.944;13.624;2022-12-15T05:36:56;14.38;;;8.43;;
52041;SDS011;38052;45.944;13.624;2022-12-15T05:39:22;12.48;;;7.85;;
52041;SDS011;38052;45.944;13.624;2022-12-15T05:41:49;12.23;;;7.78;;
52041;SDS011;38052;45.944;13.624;2022-12-15T05:44:16;11.43;;;7.85;;
52041;SDS011;38052;45.944;13.624;2022-12-15T05:46:42;12.23;;;7.40;;
52041;SDS011;38052;45.944;13.624;2022-12-15T05:49:10;16.23;;;8.07;;
52041;SDS011;38052;45.944;13.624;2022-12-15T05:51:37;16.95;;;9.57;;
52041;SDS011;38052;45.944;13.624;2022-12-15T05:54:04;14.45;;;8.77;;
52041;SDS011;38052;45.944;13.624;2022-12-15T05:56:31;13.80;;;8.88;;
52041;SDS011;38052;45.944;13.624;2022-12-15T05:58:58;18.13;;;9.48;;
52041;SDS011;38052;45.944;13.624;2022-12-15T06:01:24;18.35;;;8.38;;
52041;SDS011;38052;45.944;13.624;2022-12-15T06:03:50;13.95;;;8.32;;
52041;SDS011;38052;45.944;13.624;2022-12-15T06:06:17;13.52;;;8.25;;
52041;SDS011;38052;45.944;13.624;2022-12-15T06:08:43;16.27;;;9.63;;
52041;SDS011;38052;45.944;13.624;2022-12-15T06:11:13;19.98;;;10.10;;
52041;SDS011;38052;45.944;13.624;2022-12-15T06:13:40;18.33;;;9.02;;
52041;SDS011;38052;45.944;13.624;2022-12-15T06:16:09;15.27;;;8.82;;
52041;SDS011;38052;45.944;13.624;2022-12-15T06:18:36;16.08;;;9.05;;
52041;SDS011;38052;45.944;13.624;2022-12-15T06:21:04;16.10;;;10.23;;
52041;SDS011;38052;45.944;13.624;2022-12-15T06:23:31;15.55;;;8.82;;
52041;SDS011;38052;45.944;13.624;2022-12-15T06:25:58;13.10;;;7.95;;
52041;SDS011;38052;45.944;13.624;2022-12-15T06:28:24;16.20;;;8.82;;
52041;SDS011;38052;45.944;13.624;2022-12-15T06:30:51;19.63;;;9.23;;
52041;SDS011;38052;45.944;13.624;2022-12-15T06:33:18;21.17;;;10.48;;
52041;SDS011;38052;45.944;13.624;2022-12-15T06:35:44;16.85;;;9.80;;
52041;SDS011;38052;45.944;13.624;2022-12-15T06:38:11;15.15;;;10.40;;
52041;SDS011;38052;45.944;13.624;2022-12-15T06:40:37;22.30;;;11.38;;
52041;SDS011;38052;45.944;13.624;2022-12-15T06:43:05;15.45;;;9.80;;
52041;SDS011;38052;45.944;13.624;2022-12-15T06:45:31;24.63;;;11.93;;
52041;SDS011;38052;45.944;13.624;2022-12-15T06:47:58;21.73;;;10.50;;
52041;SDS011;38052;45.944;13.624;2022-12-15T06:50:24;17.48;;;9.32;;
52041;SDS011;38052;45.944;13.624;2022-12-15T06:52:50;20.23;;;9.32;;
52041;SDS011;38052;45.944;13.624;2022-12-15T06:55:16;15.88;;;8.60;;
52041;SDS011;38052;45.944;13.624;2022-12-15T06:57:45;20.88;;;9.10;;
52041;SDS011;38052;45.944;13.624;2022-12-15T07:00:12;14.48;;;8.32;;
52041;SDS011;38052;45.944;13.624;2022-12-15T07:02:40;14.55;;;8.38;;
52041;SDS011;38052;45.944;13.624;2022-12-15T07:05:06;13.70;;;8.77;;
52041;SDS011;38052;45.944;13.624;2022-12-15T07:07:33;13.27;;;9.23;;
52041;SDS011;38052;45.944;13.624;2022-12-15T07:10:00;17.05;;;8.82;;
52041;SDS011;38052;45.944;13.624;2022-12-15T07:12:26;13.95;;;8.48;;
52041;SDS011;38052;45.944;13.624;2022-12-15T07:14:53;17.13;;;9.73;;
52041;SDS011;38052;45.944;13.624;2022-12-15T07:17:19;14.52;;;8.65;;
52041;SDS011;38052;45.944;13.624;2022-12-15T07:19:46;15.10;;;9.63;;
52041;SDS011;38052;45.944;13.624;2022-12-15T07:22:12;14.00;;;8.82;;
52041;SDS011;38052;45.944;13.624;2022-12-15T07:24:38;17.92;;;9.13;;
52041;SDS011;38052;45.944;13.624;2022-12-15T07:27:05;17.35;;;9.50;;
52041;SDS011;38052;45.944;13.624;2022-12-15T07:29:31;25.50;;;9.15;;
52041;SDS011;38052;45.944;13.624;2022-12-15T07:31:58;16.55;;;9.02;;
52041;SDS011;38052;45.944;13.624;2022-12-15T07:34:25;18.15;;;10.25;;
52041;SDS011;38052;45.944;13.624;2022-12-15T07:36:52;18.80;;;8.95;;
52041;SDS011;38052;45.944;13.624;2022-12-15T07:39:18;20.00;;;10.30;;
52041;SDS011;38052;45.944;13.624;2022-12-15T07:41:45;20.65;;;11.15;;
52041;SDS011;38052;45.944;13.624;2022-12-15T07:44:11;17.90;;;11.25;;
52041;SDS011;38052;45.944;13.624;2022-12-15T07:46:38;26.23;;;14.05;;
52041;SDS011;38052;45.944;13.624;2022-12-15T07:49:05;21.73;;;13.68;;
52041;SDS011;38052;45.944;13.624;2022-12-15T07:51:31;27.65;;;14.48;;
52041;SDS011;38052;45.944;13.624;2022-12-15T07:53:59;22.70;;;14.65;;
52041;SDS011;38052;45.944;13.624;2022-12-15T07:56:25;23.35;;;15.25;;
52041;SDS011;38052;45.944;13.624;2022-12-15T07:58:51;27.25;;;15.82;;
52041;SDS011;38052;45.944;13.624;2022-12-15T08:01:18;26.27;;;14.98;;
52041;SDS011;38052;45.944;13.624;2022-12-15T08:03:44;23.45;;;14.02;;
52041;SDS011;38052;45.944;13.624;2022-12-15T08:06:12;23.05;;;12.77;;
52041;SDS011;38052;45.944;13.624;2022-12-15T08:08:39;21.65;;;12.77;;
52041;SDS011;38052;45.944;13.624;2022-12-15T08:11:06;24.45;;;13.00;;
52041;SDS011;38052;45.944;13.624;2022-12-15T08:13:33;21.40;;;14.75;;
52041;SDS011;38052;45.944;13.624;2022-12-15T08:16:00;25.65;;;14.70;;
52041;SDS011;38052;45.944;13.624;2022-12-15T08:18:26;20.88;;;13.57;;
52041;SDS011;38052;45.944;13.624;2022-12-15T08:20:52;21.65;;;13.43;;
52041;SDS011;38052;45.944;13.624;2022-12-15T08:23:19;19.60;;;11.48;;
52041;SDS011;38052;45.944;13.624;2022-12-15T08:25:45;15.73;;;9.90;;
52041;SDS011;38052;45.944;13.624;2022-12-15T08:28:12;19.98;;;12.82;;
52041;SDS011;38052;45.944;13.624;2022-12-15T08:30:39;20.23;;;13.02;;
52041;SDS011;38052;45.944;13.624;2022-12-15T08:33:06;24.55;;;12.15;;
52041;SDS011;38052;45.944;13.624;2022-12-15T08:35:32;19.70;;;12.98;;
52041;SDS011;38052;45.944;13.624;2022-12-15T08:37:59;19.35;;;12.43;;
52041;SDS011;38052;45.944;13.624;2022-12-15T08:40:27;21.08;;;12.32;;
52041;SDS011;38052;45.944;13.624;2022-12-15T08:42:53;19.70;;;12.50;;
52041;SDS011;38052;45.944;13.624;2022-12-15T08:45:20;19.70;;;13.25;;
52041;SDS011;38052;45.944;13.624;2022-12-15T08:47:46;20.52;;;13.43;;
52041;SDS011;38052;45.944;13.624;2022-12-15T08:50:12;19.73;;;12.52;;
52041;SDS011;38052;45.944;13.624;2022-12-15T08:52:39;16.13;;;11.35;;
52041;SDS011;38052;45.944;13.624;2022-12-15T08:55:07;16.63;;;11.27;;
52041;SDS011;38052;45.944;13.624;2022-12-15T08:57:36;16.33;;;10.05;;
52041;SDS011;38052;45.944;13.624;2022-12-15T09:00:03;17.23;;;9.43;;
52041;SDS011;38052;45.944;13.624;2022-12-15T09:02:30;21.52;;;9.65;;
52041;SDS011;38052;45.944;13.624;2022-12-15T09:04:57;18.58;;;10.13;;
52041;SDS011;38052;45.944;13.624;2022-12-15T09:07:23;23.17;;;9.85;;
52041;SDS011;38052;45.944;13.624;2022-12-15T09:09:50;22.75;;;9.65;;
52041;SDS011;38052;45.944;13.624;2022-12-15T09:12:16;16.63;;;8.07;;
52041;SDS011;38052;45.944;13.624;2022-12-15T09:14:43;16.73;;;8.95;;
52041;SDS011;38052;45.944;13.624;2022-12-15T09:17:09;13.32;;;8.60;;
52041;SDS011;38052;45.944;13.624;2022-12-15T09:19:36;13.93;;;7.65;;
52041;SDS011;38052;45.944;13.624;2022-12-15T09:22:02;12.05;;;8.63;;
52041;SDS011;38052;45.944;13.624;2022-12-15T09:24:31;17.15;;;8.43;;
52041;SDS011;38052;45.944;13.624;2022-12-15T09:26:57;13.65;;;8.25;;
52041;SDS011;38052;45.944;13.624;2022-12-15T09:29:23;12.50;;;9.00;;
52041;SDS011;38052;45.944;13.624;2022-12-15T09:31:49;16.50;;;8.32;;
52041;SDS011;38052;45.944;13.624;2022-12-15T09:34:16;16.55;;;9.48;;
52041;SDS011;38052;45.944;13.624;2022-12-15T09:36:42;17.63;;;9.50;;
52041;SDS011;38052;45.944;13.624;2022-12-15T09:39:08;16.88;;;9.75;;
52041;SDS011;38052;45.944;13.624;2022-12-15T09:41:36;14.38;;;8.35;;
52041;SDS011;38052;45.944;13.624;2022-12-15T09:44:04;21.88;;;11.15;;
52041;SDS011;38052;45.944;13.624;2022-12-15T09:48:58;19.15;;;9.30;;
52041;SDS011;38052;45.944;13.624;2022-12-15T09:51:35;19.15;;;10.00;;
52041;SDS011;38052;45.944;13.624;2022-12-15T09:54:04;18.55;;;9.13;;
52041;SDS011;38052;45.944;13.624;2022-12-15T09:56:36;18.15;;;9.20;;
52041;SDS011;38052;45.944;13.624;2022-12-15T10:07:04;20.30;;;12.75;;
52041;SDS011;38052;45.944;13.624;2022-12-15T10:09:31;19.60;;;10.15;;
52041;SDS011;38052;45.944;13.624;2022-12-15T10:17:27;16.35;;;8.90;;
52041;SDS011;38052;45.944;13.624;2022-12-15T10:22:17;18.23;;;8.25;;
52041;SDS011;38052;45.944;13.624;2022-12-15T10:24:45;18.17;;;9.20;;
52041;SDS011;38052;45.944;13.624;2022-12-15T10:29:54;13.55;;;8.75;;
52041;SDS011;38052;45.944;13.624;2022-12-15T10:34:51;14.95;;;9.18;;
52041;SDS011;38052;45.944;13.624;2022-12-15T10:37:19;14.38;;;8.05;;
52041;SDS011;38052;45.944;13.624;2022-12-15T10:39:47;15.25;;;8.02;;
52041;SDS011;38052;45.944;13.624;2022-12-15T10:44:42;16.45;;;9.23;;
52041;SDS011;38052;45.944;13.624;2022-12-15T10:47:10;18.77;;;9.70;;
52041;SDS011;38052;45.944;13.624;2022-12-15T10:49:36;13.07;;;8.15;;
52041;SDS011;38052;45.944;13.624;2022-12-15T10:52:03;14.00;;;8.20;;
52041;SDS011;38052;45.944;13.624;2022-12-15T10:54:42;11.57;;;8.57;;
52041;SDS011;38052;45.944;13.624;2022-12-15T10:59:41;13.85;;;9.10;;
52041;SDS011;38052;45.944;13.624;2022-12-15T11:02:16;14.93;;;9.40;;
52041;SDS011;38052;45.944;13.624;2022-12-15T11:05:44;14.85;;;8.75;;
52041;SDS011;38052;45.944;13.624;2022-12-15T11:10:13;12.07;;;8.23;;
52041;SDS011;38052;45.944;13.624;2022-12-15T11:12:40;17.60;;;9.07;;
52041;SDS011;38052;45.944;13.624;2022-12-15T11:20:19;20.23;;;14.38;;
52041;SDS011;38052;45.944;13.624;2022-12-15T11:22:49;23.58;;;15.15;;
52041;SDS011;38052;45.944;13.624;2022-12-15T11:25:26;26.08;;;17.20;;
52041;SDS011;38052;45.944;13.624;2022-12-15T11:27:54;29.92;;;18.00;;
52041;SDS011;38052;45.944;13.624;2022-12-15T11:30:27;30.50;;;20.05;;
52041;SDS011;38052;45.944;13.624;2022-12-15T11:32:57;28.42;;;20.10;;
52041;SDS011;38052;45.944;13.624;2022-12-15T11:38:18;38.30;;;20.67;;
52041;SDS011;38052;45.944;13.624;2022-12-15T11:40:49;26.45;;;20.25;;
52041;SDS011;38052;45.944;13.624;2022-12-15T11:48:53;22.40;;;14.88;;
52041;SDS011;38052;45.944;13.624;2022-12-15T11:59:25;22.15;;;17.15;;
52041;SDS011;38052;45.944;13.624;2022-12-15T12:04:26;23.30;;;16.50;;
52041;SDS011;38052;45.944;13.624;2022-12-15T12:09:30;20.40;;;14.45;;
52041;SDS011;38052;45.944;13.624;2022-12-15T12:12:20;19.13;;;14.63;;
52041;SDS011;38052;45.944;13.624;2022-12-15T12:14:52;20.25;;;15.63;;
52041;SDS011;38052;45.944;13.624;2022-12-15T12:19:57;27.13;;;16.65;;
52041;SDS011;38052;45.944;13.624;2022-12-15T12:22:33;29.02;;;16.83;;
52041;SDS011;38052;45.944;13.624;2022-12-15T12:25:02;22.50;;;16.50;;
52041;SDS011;38052;45.944;13.624;2022-12-15T12:27:32;24.52;;;17.48;;
52041;SDS011;38052;45.944;13.624;2022-12-15T12:30:11;25.27;;;17.92;;
52041;SDS011;38052;45.944;13.624;2022-12-15T12:35:22;27.23;;;18.67;;
52041;SDS011;38052;45.944;13.624;2022-12-15T12:38:02;22.60;;;18.00;;
52041;SDS011;38052;45.944;13.624;2022-12-15T12:40:51;27.95;;;18.15;;
52041;SDS011;38052;45.944;13.624;2022-12-15T12:45:51;25.27;;;18.98;;
52041;SDS011;38052;45.944;13.624;2022-12-15T12:53:56;28.33;;;19.55;;
52041;SDS011;38052;45.944;13.624;2022-12-15T12:56:39;26.67;;;19.48;;
52041;SDS011;38052;45.944;13.624;2022-12-15T12:59:30;26.77;;;19.98;;
52041;SDS011;38052;45.944;13.624;2022-12-15T13:01:51;27.00;;;19.42;;
52041;SDS011;38052;45.944;13.624;2022-12-15T13:06:56;24.75;;;17.50;;
52041;SDS011;38052;45.944;13.624;2022-12-15T13:09:40;29.00;;;18.25;;
52041;SDS011;38052;45.944;13.624;2022-12-15T13:12:31;25.87;;;18.37;;
52041;SDS011;38052;45.944;13.624;2022-12-15T13:14:53;28.25;;;18.42;;
52041;SDS011;38052;45.944;13.624;2022-12-15T13:17:53;27.23;;;16.65;;
52041;SDS011;38052;45.944;13.624;2022-12-15T13:20:20;24.70;;;14.65;;
52041;SDS011;38052;45.944;13.624;2022-12-15T13:22:46;23.40;;;16.88;;
52041;SDS011;38052;45.944;13.624;2022-12-15T13:27:58;28.58;;;15.70;;
52041;SDS011;38052;45.944;13.624;2022-12-15T13:30:26;21.38;;;12.13;;
52041;SDS011;38052;45.944;13.624;2022-12-15T13:32:53;23.48;;;11.98;;
52041;SDS011;38052;45.944;13.624;2022-12-15T13:35:30;18.25;;;12.55;;
52041;SDS011;38052;45.944;13.624;2022-12-15T13:37:59;19.08;;;12.32;;
52041;SDS011;38052;45.944;13.624;2022-12-15T13:45:47;21.85;;;11.90;;
52041;SDS011;38052;45.944;13.624;2022-12-15T13:48:17;17.63;;;11.35;;
52041;SDS011;38052;45.944;13.624;2022-12-15T13:53:21;22.45;;;13.07;;
52041;SDS011;38052;45.944;13.624;2022-12-15T13:55:52;21.83;;;11.68;;
52041;SDS011;38052;45.944;13.624;2022-12-15T13:58:19;19.83;;;12.98;;
52041;SDS011;38052;45.944;13.624;2022-12-15T14:00:51;17.67;;;11.13;;
52041;SDS011;38052;45.944;13.624;2022-12-15T14:03:17;20.58;;;11.07;;
52041;SDS011;38052;45.944;13.624;2022-12-15T14:05:48;19.38;;;10.80;;
52041;SDS011;38052;45.944;13.624;2022-12-15T14:08:15;17.95;;;11.75;;
52041;SDS011;38052;45.944;13.624;2022-12-15T14:10:52;22.55;;;12.82;;
52041;SDS011;38052;45.944;13.624;2022-12-15T14:15:52;20.88;;;14.38;;
52041;SDS011;38052;45.944;13.624;2022-12-15T14:20:49;25.02;;;16.75;;
52041;SDS011;38052;45.944;13.624;2022-12-15T14:23:23;26.40;;;21.00;;
52041;SDS011;38052;45.944;13.624;2022-12-15T14:25:51;24.58;;;19.00;;
52041;SDS011;38052;45.944;13.624;2022-12-15T14:28:25;24.02;;;17.38;;
52041;SDS011;38052;45.944;13.624;2022-12-15T14:30:55;25.05;;;18.08;;
52041;SDS011;38052;45.944;13.624;2022-12-15T14:33:22;24.88;;;19.58;;
52041;SDS011;38052;45.944;13.624;2022-12-15T14:35:49;26.63;;;19.27;;
52041;SDS011;38052;45.944;13.624;2022-12-15T14:38:17;25.50;;;20.60;;
52041;SDS011;38052;45.944;13.624;2022-12-15T14:40:44;26.63;;;20.08;;
52041;SDS011;38052;45.944;13.624;2022-12-15T14:43:15;27.70;;;20.27;;
52041;SDS011;38052;45.944;13.624;2022-12-15T14:45:43;26.42;;;18.75;;
52041;SDS011;38052;45.944;13.624;2022-12-15T14:48:13;23.38;;;17.20;;
52041;SDS011;38052;45.944;13.624;2022-12-15T14:50:45;24.33;;;17.40;;
52041;SDS011;38052;45.944;13.624;2022-12-15T14:53:12;25.83;;;17.40;;
52041;SDS011;38052;45.944;13.624;2022-12-15T14:55:39;24.25;;;17.77;;
52041;SDS011;38052;45.944;13.624;2022-12-15T15:00:52;23.88;;;19.17;;
52041;SDS011;38052;45.944;13.624;2022-12-15T15:03:20;26.27;;;19.50;;
52041;SDS011;38052;45.944;13.624;2022-12-15T15:05:47;26.70;;;18.02;;
52041;SDS011;38052;45.944;13.624;2022-12-15T15:08:18;24.77;;;18.58;;
52041;SDS011;38052;45.944;13.624;2022-12-15T15:10:47;28.77;;;19.38;;
52041;SDS011;38052;45.944;13.624;2022-12-15T15:13:20;28.70;;;20.92;;
52041;SDS011;38052;45.944;13.624;2022-12-15T15:15:55;28.00;;;19.30;;
52041;SDS011;38052;45.944;13.624;2022-12-15T15:18:23;22.95;;;18.13;;
52041;SDS011;38052;45.944;13.624;2022-12-15T15:20:53;25.90;;;19.55;;
52041;SDS011;38052;45.944;13.624;2022-12-15T15:23:20;23.80;;;18.30;;
52041;SDS011;38052;45.944;13.624;2022-12-15T15:25:48;29.75;;;20.50;;
52041;SDS011;38052;45.944;13.624;2022-12-15T15:30:54;27.10;;;19.25;;
52041;SDS011;38052;45.944;13.624;2022-12-15T15:33:21;31.83;;;21.35;;
52041;SDS011;38052;45.944;13.624;2022-12-15T15:35:57;27.17;;;19.50;;
52041;SDS011;38052;45.944;13.624;2022-12-15T15:40:54;14.75;;;9.40;;
52041;SDS011;38052;45.944;13.624;2022-12-15T15:43:22;13.55;;;8.60;;
52041;SDS011;38052;45.944;13.624;2022-12-15T15:45:49;12.82;;;7.60;;
52041;SDS011;38052;45.944;13.624;2022-12-15T15:48:26;11.88;;;7.45;;
52041;SDS011;38052;45.944;13.624;2022-12-15T15:50:53;12.45;;;6.97;;
52041;SDS011;38052;45.944;13.624;2022-12-15T15:53:21;10.98;;;6.45;;
52041;SDS011;38052;45.944;13.624;2022-12-15T15:55:48;11.57;;;7.78;;
52041;SDS011;38052;45.944;13.624;2022-12-15T15:58:16;14.05;;;7.88;;
52041;SDS011;38052;45.944;13.624;2022-12-15T16:00:42;16.40;;;8.00;;
52041;SDS011;38052;45.944;13.624;2022-12-15T16:03:08;10.50;;;7.03;;
52041;SDS011;38052;45.944;13.624;2022-12-15T16:05:35;14.27;;;7.80;;
52041;SDS011;38052;45.944;13.624;2022-12-15T16:08:02;10.75;;;7.57;;
52041;SDS011;38052;45.944;13.624;2022-12-15T16:10:29;14.00;;;8.35;;
52041;SDS011;38052;45.944;13.624;2022-12-15T16:12:56;13.10;;;8.80;;
52041;SDS011;38052;45.944;13.624;2022-12-15T16:15:25;11.75;;;9.10;;
52041;SDS011;38052;45.944;13.624;2022-12-15T16:17:51;11.63;;;8.50;;
52041;SDS011;38052;45.944;13.624;2022-12-15T16:20:19;14.30;;;8.35;;
52041;SDS011;38052;45.944;13.624;2022-12-15T16:22:47;9.43;;;7.30;;
52041;SDS011;38052;45.944;13.624;2022-12-15T16:25:16;9.30;;;6.93;;
52041;SDS011;38052;45.944;13.624;2022-12-15T16:27:43;8.32;;;6.43;;
52041;SDS011;38052;45.944;13.624;2022-12-15T16:30:20;8.55;;;6.55;;
52041;SDS011;38052;45.944;13.624;2022-12-15T16:32:47;8.90;;;5.32;;
52041;SDS011;38052;45.944;13.624;2022-12-15T16:35:13;10.23;;;6.35;;
52041;SDS011;38052;45.944;13.624;2022-12-15T16:37:40;14.25;;;7.85;;
52041;SDS011;38052;45.944;13.624;2022-12-15T16:40:21;10.80;;;7.22;;